Time;durP1;ratioP1;P1;durP2;ratioP2;P2;SDS_P1;SDS_P2;PMS_P1;PMS_P2;Temp;Humidity;BMP_temperature;BMP_pressure;BME280_temperature;BME280_humidity;BME280_pressure;Samples;Min_cycle;Max_cycle;Signal;HPM_P1;HPM_P2
2022/03/15 00:00:24;;;;;;;;;;;14.50;52.10;;;;;;5094009;28;19924;-67
2022/03/15 00:02:50;;;;;;;;;;;14.50;52.10;;;;;;5093347;28;19924;-67
2022/03/15 00:05:18;;;;;;;;;;;14.50;52.10;;;;;;5074951;28;19924;-67
2022/03/15 00:07:45;;;;;;;;;;;14.40;52.10;;;;;;5075496;28;19934;-67
2022/03/15 00:10:12;;;;;;;;;;;14.40;52.10;;;;;;5093401;28;20385;-68
2022/03/15 00:12:38;;;;;;;;;;;14.40;52.10;;;;;;5075435;28;19928;-67
2022/03/15 00:15:07;;;;;;;;;;;14.40;52.10;;;;;;5074447;28;19924;-67
2022/03/15 00:17:34;;;;;;;;;;;14.40;52.10;;;;;;5075733;28;20348;-67
2022/03/15 00:20:01;;;;;;;;;;;14.40;52.70;;;;;;5075059;28;19924;-67
2022/03/15 00:22:29;;;;;;;;;;;14.40;52.20;;;;;;5092989;28;20392;-67
2022/03/15 00:24:56;;;;;;;;;;;14.40;52.10;;;;;;5093181;28;19978;-68
2022/03/15 00:27:22;;;;;;;;;;;14.40;52.10;;;;;;5075078;28;19924;-67
2022/03/15 00:29:49;;;;;;;;;;;14.40;52.10;;;;;;5075289;28;19928;-67
2022/03/15 00:32:19;;;;;;;;;;;14.40;52.10;;;;;;5075221;28;19967;-70
2022/03/15 00:34:46;;;;;;;;;;;14.40;52.10;;;;;;5093012;28;20360;-67
2022/03/15 00:37:13;;;;;;;;;;;14.40;52.10;;;;;;5092851;28;19931;-67
2022/03/15 00:39:41;;;;;;;;;;;14.40;52.10;;;;;;5093154;28;19927;-66
2022/03/15 00:42:07;;;;;;;;;;;14.40;52.10;;;;;;5075053;28;19947;-67
2022/03/15 00:44:34;;;;;;;;;;;14.40;52.10;;;;;;5074479;28;19924;-68
2022/03/15 00:47:01;;;;;;;;;;;14.40;52.10;;;;;;5092762;28;19930;-67
2022/03/15 00:49:27;;;;;;;;;;;14.40;52.10;;;;;;5075065;28;20014;-67
2022/03/15 00:51:54;;;;;;;;;;;14.40;52.00;;;;;;5092308;28;19930;-67
2022/03/15 00:54:21;;;;;;;;;;;14.40;52.00;;;;;;5092628;28;19932;-68
2022/03/15 00:56:48;;;;;;;;;;;14.50;52.10;;;;;;5092972;28;19925;-67
2022/03/15 00:59:15;;;;;;;;;;;14.50;52.10;;;;;;5074569;28;19924;-67
2022/03/15 01:01:42;;;;;;;;;;;14.50;52.00;;;;;;5092726;28;19982;-67
2022/03/15 01:04:08;;;;;;;;;;;14.50;52.00;;;;;;5074217;28;20165;-67
2022/03/15 01:06:37;;;;;;;;;;;14.50;52.00;;;;;;5092636;28;19931;-67
2022/03/15 01:09:04;;;;;;;;;;;14.50;52.00;;;;;;5092428;28;19924;-67
2022/03/15 01:11:30;;;;;;;;;;;14.50;52.00;;;;;;5074671;28;19924;-67
2022/03/15 01:13:59;;;;;;;;;;;14.50;52.00;;;;;;5074087;28;20385;-68
2022/03/15 01:16:25;;;;;;;;;;;14.50;52.00;;;;;;5092430;28;19974;-67
2022/03/15 01:18:52;;;;;;;;;;;14.50;52.00;;;;;;5092383;28;19930;-67
2022/03/15 01:21:19;;;;;;;;;;;14.50;51.90;;;;;;5074506;28;19931;-67
2022/03/15 01:23:45;;;;;;;;;;;14.50;52.00;;;;;;5074232;28;19924;-67
2022/03/15 01:26:14;;;;;;;;;;;14.50;51.90;;;;;;5092498;28;19924;-67
2022/03/15 01:28:40;;;;;;;;;;;14.50;51.90;;;;;;5098873;28;20010;-67
2022/03/15 01:31:08;;;;;;;;;;;14.50;51.90;;;;;;5081208;28;20007;-67
2022/03/15 01:33:35;;;;;;;;;;;14.50;51.80;;;;;;5099143;28;19946;-67
2022/03/15 01:36:02;;;;;;;;;;;14.50;51.80;;;;;;5078935;28;19924;-67
2022/03/15 01:38:28;;;;;;;;;;;14.50;51.80;;;;;;5081249;28;19928;-67
2022/03/15 01:40:55;;;;;;;;;;;14.50;51.80;;;;;;5098745;28;20018;-67
2022/03/15 01:43:22;;;;;;;;;;;14.50;51.80;;;;;;5098348;28;19924;-67
2022/03/15 01:45:48;;;;;;;;;;;14.50;51.80;;;;;;5098940;28;19924;-67
2022/03/15 01:48:16;;;;;;;;;;;14.50;51.80;;;;;;5081180;28;19999;-67
2022/03/15 01:50:43;;;;;;;;;;;14.50;51.80;;;;;;5098741;28;20296;-67
2022/03/15 01:53:09;;;;;;;;;;;14.50;51.80;;;;;;5098700;28;20296;-67
2022/03/15 01:55:36;;;;;;;;;;;14.50;51.80;;;;;;5099034;28;19924;-69
2022/03/15 01:58:03;;;;;;;;;;;14.50;51.80;;;;;;5080418;28;20376;-67
2022/03/15 02:00:31;;;;;;;;;;;14.50;51.80;;;;;;5081001;28;20399;-69
2022/03/15 02:02:58;;;;;;;;;;;14.50;51.80;;;;;;5080752;28;20603;-70
2022/03/15 02:05:26;;;;;;;;;;;14.50;51.80;;;;;;5098460;28;20295;-69
2022/03/15 02:07:52;;;;;;;;;;;14.50;51.80;;;;;;5098518;28;19924;-68
2022/03/15 02:10:19;;;;;;;;;;;14.50;51.80;;;;;;5098827;28;19924;-69
2022/03/15 02:12:46;;;;;;;;;;;14.50;51.80;;;;;;5080316;28;19924;-69
2022/03/15 02:15:12;;;;;;;;;;;14.50;51.80;;;;;;5098922;28;19924;-70
2022/03/15 02:17:39;;;;;;;;;;;14.50;51.80;;;;;;5080795;28;19930;-68
2022/03/15 02:20:07;;;;;;;;;;;14.50;51.70;;;;;;5098538;28;20023;-69
2022/03/15 02:22:34;;;;;;;;;;;14.50;51.70;;;;;;5080725;28;19924;-70
2022/03/15 02:25:00;;;;;;;;;;;14.50;51.80;;;;;;5098349;28;20420;-68
2022/03/15 02:27:27;;;;;;;;;;;14.50;51.70;;;;;;5098593;28;19924;-69
2022/03/15 02:29:54;;;;;;;;;;;14.50;51.70;;;;;;5080431;28;19946;-69
2022/03/15 02:32:21;;;;;;;;;;;14.50;52.30;;;;;;5098669;28;19978;-69
2022/03/15 02:34:47;;;;;;;;;;;14.50;51.70;;;;;;5098415;28;19954;-69
2022/03/15 02:37:15;;;;;;;;;;;14.50;51.70;;;;;;5098390;28;19930;-69
2022/03/15 02:39:42;;;;;;;;;;;14.50;51.70;;;;;;5094407;28;19924;-69
2022/03/15 02:42:09;;;;;;;;;;;14.50;51.70;;;;;;5077295;28;19939;-69
2022/03/15 02:44:35;;;;;;;;;;;16.10;52.60;;;;;;5076950;28;20005;-69
2022/03/15 02:47:02;;;;;;;;;;;14.50;51.70;;;;;;5077295;28;20434;-69
2022/03/15 02:49:29;;;;;;;;;;;14.40;51.60;;;;;;5077002;28;19924;-70
2022/03/15 02:51:55;;;;;;;;;;;14.40;51.70;;;;;;5094952;28;19931;-68
2022/03/15 02:54:23;;;;;;;;;;;14.50;51.70;;;;;;5094634;28;19928;-69
2022/03/15 02:56:50;;;;;;;;;;;14.40;51.70;;;;;;5094948;28;19973;-69
2022/03/15 02:59:17;;;;;;;;;;;14.40;51.60;;;;;;5076973;28;20014;-69
2022/03/15 03:01:44;;;;;;;;;;;14.40;51.60;;;;;;5095133;28;19924;-69
2022/03/15 03:04:11;;;;;;;;;;;14.40;51.60;;;;;;5094275;28;19927;-69
2022/03/15 03:06:37;;;;;;;;;;;14.40;51.60;;;;;;5076603;28;19924;-69
2022/03/15 03:09:04;;;;;;;;;;;14.40;51.60;;;;;;5076910;28;19924;-68
2022/03/15 03:11:32;;;;;;;;;;;14.40;51.60;;;;;;5094714;28;20374;-69
2022/03/15 03:14:00;;;;;;;;;;;14.40;51.60;;;;;;5076040;28;19970;-70
2022/03/15 03:16:27;;;;;;;;;;;14.40;51.60;;;;;;5094895;28;19935;-69
2022/03/15 03:18:57;;;;;;;;;;;14.40;51.60;;;;;;5076656;28;20407;-69
2022/03/15 03:21:25;;;;;;;;;;;14.40;51.60;;;;;;5076759;28;19932;-69
2022/03/15 03:23:53;;;;;;;;;;;14.40;51.60;;;;;;5094270;28;19978;-69
2022/03/15 03:26:20;;;;;;;;;;;14.40;51.60;;;;;;5094368;28;19924;-70
2022/03/15 03:28:48;;;;;;;;;;;14.40;51.60;;;;;;5076669;28;20010;-70
2022/03/15 03:31:15;;;;;;;;;;;14.40;51.70;;;;;;5094283;28;19924;-70
2022/03/15 03:33:42;;;;;;;;;;;14.40;51.60;;;;;;5094168;28;19924;-69
2022/03/15 03:36:09;;;;;;;;;;;14.40;51.60;;;;;;5094247;28;19924;-68
2022/03/15 03:38:36;;;;;;;;;;;14.40;51.60;;;;;;5076325;28;19924;-69
2022/03/15 03:41:02;;;;;;;;;;;14.40;51.60;;;;;;5076115;28;19924;-69
2022/03/15 03:43:29;;;;;;;;;;;14.40;51.60;;;;;;5093703;28;19981;-69
2022/03/15 03:45:57;;;;;;;;;;;14.40;51.60;;;;;;5075732;28;19924;-69
2022/03/15 03:48:24;;;;;;;;;;;14.40;51.60;;;;;;5094182;28;19930;-70
2022/03/15 03:50:50;;;;;;;;;;;14.40;51.60;;;;;;5093879;28;19935;-69
2022/03/15 03:53:17;;;;;;;;;;;14.40;51.60;;;;;;5093609;28;19966;-68
2022/03/15 03:55:44;;;;;;;;;;;14.40;51.60;;;;;;5075626;28;20011;-69
2022/03/15 03:58:10;;;;;;;;;;;14.40;51.60;;;;;;5094032;28;19924;-69
2022/03/15 04:00:37;;;;;;;;;;;14.30;51.50;;;;;;5093954;28;19930;-69
2022/03/15 04:03:05;;;;;;;;;;;14.30;51.50;;;;;;5075006;28;19977;-69
2022/03/15 04:05:35;;;;;;;;;;;14.30;51.50;;;;;;5093811;28;20022;-68
2022/03/15 04:08:01;;;;;;;;;;;14.30;51.50;;;;;;5093645;28;19928;-69
2022/03/15 04:10:30;;;;;;;;;;;14.40;51.60;;;;;;5093587;28;19928;-69
2022/03/15 04:12:57;;;;;;;;;;;14.30;51.50;;;;;;5093551;28;19924;-70
2022/03/15 04:15:24;;;;;;;;;;;14.30;51.50;;;;;;5093063;28;19924;-68
2022/03/15 04:17:50;;;;;;;;;;;14.30;51.50;;;;;;5075454;28;20360;-69
2022/03/15 04:20:19;;;;;;;;;;;14.40;51.50;;;;;;5093556;28;20292;-69
2022/03/15 04:22:45;;;;;;;;;;;14.30;51.50;;;;;;5093285;28;19924;-69
2022/03/15 04:25:12;;;;;;;;;;;14.30;51.50;;;;;;5093075;28;20010;-68
2022/03/15 04:27:39;;;;;;;;;;;14.30;51.50;;;;;;5093269;28;20400;-70
2022/03/15 04:30:06;;;;;;;;;;;14.30;51.50;;;;;;5092822;28;19931;-69
2022/03/15 04:32:33;;;;;;;;;;;14.30;51.50;;;;;;5075289;28;19924;-69
2022/03/15 04:34:59;;;;;;;;;;;14.30;51.50;;;;;;5092755;28;19931;-69
2022/03/15 04:37:27;;;;;;;;;;;14.30;51.50;;;;;;5093114;28;19924;-69
2022/03/15 04:39:55;;;;;;;;;;;14.30;51.50;;;;;;5075206;28;19994;-69
2022/03/15 04:42:22;;;;;;;;;;;14.30;51.50;;;;;;5074601;28;20005;-69
2022/03/15 04:44:49;;;;;;;;;;;14.30;51.50;;;;;;5074420;28;19931;-69
2022/03/15 04:47:15;;;;;;;;;;;14.30;52.10;;;;;;5092911;28;19931;-70
2022/03/15 04:49:42;;;;;;;;;;;14.30;51.50;;;;;;5093131;28;19971;-69
2022/03/15 04:52:09;;;;;;;;;;;14.30;51.50;;;;;;5074765;28;19927;-68
2022/03/15 04:54:37;;;;;;;;;;;14.30;51.50;;;;;;5092750;28;19931;-69
2022/03/15 04:57:03;;;;;;;;;;;14.30;51.50;;;;;;5092355;28;20384;-69
2022/03/15 04:59:30;;;;;;;;;;;14.30;51.50;;;;;;5074492;28;19924;-69
2022/03/15 05:01:56;;;;;;;;;;;14.30;51.50;;;;;;5073922;28;19931;-69
2022/03/15 05:04:23;;;;;;;;;;;14.30;51.50;;;;;;5092208;28;20030;-69
2022/03/15 05:06:50;;;;;;;;;;;14.30;51.50;;;;;;5092529;28;19925;-69
2022/03/15 05:09:17;;;;;;;;;;;14.30;51.50;;;;;;5074771;28;20293;-69
2022/03/15 05:11:45;;;;;;;;;;;14.50;51.60;;;;;;5092307;28;20303;-68
2022/03/15 05:14:12;;;;;;;;;;;14.30;51.50;;;;;;5071990;28;19954;-69
2022/03/15 05:16:38;;;;;;;;;;;14.30;51.50;;;;;;5054657;28;19928;-69
2022/03/15 05:19:05;;;;;;;;;;;14.30;51.50;;;;;;5054755;28;19924;-69
2022/03/15 05:21:32;;;;;;;;;;;14.30;51.50;;;;;;5054526;28;19928;-68
2022/03/15 05:23:58;;;;;;;;;;;14.30;51.50;;;;;;5076163;28;19925;-69
2022/03/15 05:26:25;;;;;;;;;;;14.30;51.50;;;;;;5091994;28;19924;-70
2022/03/15 05:28:53;;;;;;;;;;;14.30;51.50;;;;;;5092454;28;19928;-68
2022/03/15 05:31:20;;;;;;;;;;;14.30;51.50;;;;;;5092704;28;20444;-69
2022/03/15 05:33:47;;;;;;;;;;;14.30;51.50;;;;;;5074274;28;19924;-69
2022/03/15 05:36:13;;;;;;;;;;;14.30;51.50;;;;;;5074505;28;20002;-69
2022/03/15 05:38:40;;;;;;;;;;;14.30;52.10;;;;;;5074139;28;19930;-69
2022/03/15 05:41:08;;;;;;;;;;;14.30;51.50;;;;;;5074231;28;19924;-69
2022/03/15 05:43:34;;;;;;;;;;;14.30;51.50;;;;;;5092019;28;20360;-69
2022/03/15 05:46:02;;;;;;;;;;;14.30;51.50;;;;;;5092265;28;19924;-69
2022/03/15 05:48:29;;;;;;;;;;;14.30;51.50;;;;;;5092095;28;19924;-69
2022/03/15 05:50:56;;;;;;;;;;;14.30;51.50;;;;;;5091928;28;19930;-70
2022/03/15 05:53:22;;;;;;;;;;;14.30;51.50;;;;;;5074043;28;19924;-69
2022/03/15 05:55:49;;;;;;;;;;;14.30;51.40;;;;;;5074056;28;19931;-69
2022/03/15 05:58:16;;;;;;;;;;;14.30;51.40;;;;;;5092251;28;19924;-70
2022/03/15 06:00:43;;;;;;;;;;;14.30;51.40;;;;;;5091963;28;20293;-70
2022/03/15 06:03:11;;;;;;;;;;;14.20;51.30;;;;;;5091886;28;19924;-69
2022/03/15 06:05:37;;;;;;;;;;;14.30;51.40;;;;;;5073947;28;19924;-70
2022/03/15 06:08:04;;;;;;;;;;;14.30;51.40;;;;;;5091959;28;19928;-71
2022/03/15 06:10:31;;;;;;;;;;;14.30;51.50;;;;;;5092369;28;20467;-68
2022/03/15 06:12:58;;;;;;;;;;;14.30;51.50;;;;;;5091545;28;19925;-68
2022/03/15 06:15:25;;;;;;;;;;;14.30;51.40;;;;;;5077348;28;19931;-68
2022/03/15 06:17:52;;;;;;;;;;;14.30;51.50;;;;;;5078024;28;19936;-68
2022/03/15 06:20:20;;;;;;;;;;;14.20;51.40;;;;;;5077669;28;19924;-68
2022/03/15 06:22:47;;;;;;;;;;;14.30;51.40;;;;;;5095087;28;20381;-68
2022/03/15 06:25:13;;;;;;;;;;;14.30;51.50;;;;;;5094973;28;19928;-68
2022/03/15 06:27:40;;;;;;;;;;;14.30;51.50;;;;;;5094966;28;19924;-68
2022/03/15 06:30:08;;;;;;;;;;;14.20;51.40;;;;;;5095232;28;20021;-68
2022/03/15 06:32:34;;;;;;;;;;;14.30;51.50;;;;;;5094790;28;19960;-68
2022/03/15 06:35:02;;;;;;;;;;;14.20;51.40;;;;;;5076630;28;19924;-68
2022/03/15 06:37:30;;;;;;;;;;;14.30;51.40;;;;;;5077227;28;19928;-68
2022/03/15 06:39:57;;;;;;;;;;;14.20;51.40;;;;;;5095225;28;19924;-68
2022/03/15 06:42:23;;;;;;;;;;;14.20;51.40;;;;;;5092132;28;20336;-67
2022/03/15 06:44:50;;;;;;;;;;;14.20;51.40;;;;;;5076721;28;19946;-68
2022/03/15 06:47:16;;;;;;;;;;;14.20;51.40;;;;;;5076546;28;19931;-68
2022/03/15 06:49:43;;;;;;;;;;;14.20;51.40;;;;;;5092016;28;19925;-69
2022/03/15 06:52:10;;;;;;;;;;;14.30;51.40;;;;;;5094180;28;20019;-68
2022/03/15 06:54:38;;;;;;;;;;;14.20;51.40;;;;;;5094347;28;19928;-68
2022/03/15 06:57:04;;;;;;;;;;;14.20;51.40;;;;;;5075833;28;19931;-68
2022/03/15 06:59:31;;;;;;;;;;;14.20;51.40;;;;;;5076103;28;19924;-68
2022/03/15 07:01:58;;;;;;;;;;;14.20;51.40;;;;;;5094070;28;19924;-68
2022/03/15 07:04:24;;;;;;;;;;;14.20;51.50;;;;;;5092676;28;20023;-67
2022/03/15 07:06:53;;;;;;;;;;;14.20;51.40;;;;;;5075693;28;22443;-68
2022/03/15 07:09:19;;;;;;;;;;;14.20;51.40;;;;;;5094638;28;20392;-71
2022/03/15 07:11:47;;;;;;;;;;;14.20;51.40;;;;;;5094733;28;20376;-69
2022/03/15 07:14:14;;;;;;;;;;;14.20;51.40;;;;;;5093827;28;19938;-69
2022/03/15 07:16:40;;;;;;;;;;;14.30;51.60;;;;;;5091681;28;20396;-70
2022/03/15 07:19:07;;;;;;;;;;;14.30;51.60;;;;;;5076426;28;20377;-70
2022/03/15 07:21:33;;;;;;;;;;;14.40;51.60;;;;;;5093776;28;20303;-70
2022/03/15 07:24:00;;;;;;;;;;;14.40;51.60;;;;;;5091045;28;20299;-70
2022/03/15 07:26:26;;;;;;;;;;;14.40;51.60;;;;;;5075634;28;19924;-69
2022/03/15 07:28:54;;;;;;;;;;;14.50;51.70;;;;;;5094105;28;20299;-70
2022/03/15 07:31:22;;;;;;;;;;;14.50;52.00;;;;;;5091571;28;19927;-70
2022/03/15 07:33:48;;;;;;;;;;;14.60;52.60;;;;;;5094151;28;20303;-70
2022/03/15 07:36:15;;;;;;;;;;;14.60;53.00;;;;;;5075576;28;20331;-70
2022/03/15 07:38:42;;;;;;;;;;;14.60;53.40;;;;;;5076287;28;19963;-70
2022/03/15 07:41:08;;;;;;;;;;;14.70;53.40;;;;;;5094039;28;19930;-70
2022/03/15 07:43:35;;;;;;;;;;;14.80;53.50;;;;;;5093208;28;19924;-69
2022/03/15 07:46:03;;;;;;;;;;;14.90;53.60;;;;;;5076327;28;19924;-70
2022/03/15 07:48:29;;;;;;;;;;;14.90;53.80;;;;;;5076039;28;19924;-70
2022/03/15 07:50:56;;;;;;;;;;;14.90;53.70;;;;;;5094074;28;19924;-70
2022/03/15 07:53:22;;;;;;;;;;;15.00;53.80;;;;;;5075575;28;19928;-70
2022/03/15 07:55:49;;;;;;;;;;;15.00;53.60;;;;;;5093382;28;19924;-70
2022/03/15 07:58:16;;;;;;;;;;;15.00;53.70;;;;;;5089786;28;20001;-70
2022/03/15 08:00:42;;;;;;;;;;;15.10;53.40;;;;;;5075825;28;19924;-70
2022/03/15 08:03:10;;;;;;;;;;;15.10;53.30;;;;;;5075300;28;20365;-69
2022/03/15 08:05:37;;;;;;;;;;;15.10;53.10;;;;;;5093923;28;19947;-70
2022/03/15 08:08:05;;;;;;;;;;;15.20;53.20;;;;;;5092815;28;19924;-70
2022/03/15 08:10:32;;;;;;;;;;;15.20;53.10;;;;;;5090351;28;19935;-69
2022/03/15 08:12:59;;;;;;;;;;;15.20;53.10;;;;;;5074672;28;20025;-70
2022/03/15 08:15:25;;;;;;;;;;;15.20;52.90;;;;;;5093020;28;20292;-70
2022/03/15 08:17:52;;;;;;;;;;;15.30;52.90;;;;;;5093254;28;19935;-68
2022/03/15 08:20:20;;;;;;;;;;;15.30;53.00;;;;;;5075260;28;19924;-69
2022/03/15 08:22:47;;;;;;;;;;;15.30;52.90;;;;;;5092875;28;20359;-69
2022/03/15 08:25:13;;;;;;;;;;;15.30;52.70;;;;;;5074175;28;19964;-69
2022/03/15 08:27:40;;;;;;;;;;;15.40;52.50;;;;;;5092721;28;19928;-69
2022/03/15 08:30:07;;;;;;;;;;;15.40;52.40;;;;;;5092866;28;20311;-68
2022/03/15 08:32:34;;;;;;;;;;;15.30;52.30;;;;;;5091834;28;19930;-68
2022/03/15 08:35:01;;;;;;;;;;;15.40;52.40;;;;;;5071810;28;20589;-68
2022/03/15 08:37:28;;;;;;;;;;;15.40;52.30;;;;;;5071359;28;19924;-70
2022/03/15 08:39:55;;;;;;;;;;;15.40;52.20;;;;;;5090378;28;19924;-70
2022/03/15 08:42:22;;;;;;;;;;;15.40;52.20;;;;;;5090627;28;19928;-69
2022/03/15 08:44:48;;;;;;;;;;;15.40;52.10;;;;;;5072348;28;20365;-69
2022/03/15 08:47:15;;;;;;;;;;;15.40;52.10;;;;;;5090511;28;20388;-69
2022/03/15 08:49:43;;;;;;;;;;;15.40;52.00;;;;;;5091925;28;20388;-69
2022/03/15 08:52:10;;;;;;;;;;;15.40;52.00;;;;;;5092337;28;19924;-67
2022/03/15 08:54:38;;;;;;;;;;;15.50;52.00;;;;;;5092561;28;19931;-69
2022/03/15 08:57:07;;;;;;;;;;;15.50;52.00;;;;;;5074464;28;20339;-70
2022/03/15 08:59:34;;;;;;;;;;;15.50;52.00;;;;;;5090173;28;20311;-69
2022/03/15 09:02:01;;;;;;;;;;;15.50;52.00;;;;;;5092221;28;20016;-70
2022/03/15 09:04:27;;;;;;;;;;;15.50;52.00;;;;;;5092004;28;19946;-69
2022/03/15 09:06:54;;;;;;;;;;;15.50;52.50;;;;;;5074315;28;19930;-70
2022/03/15 09:09:24;;;;;;;;;;;15.50;51.90;;;;;;5092494;28;19931;-70
2022/03/15 09:11:52;;;;;;;;;;;15.50;52.00;;;;;;5089359;28;19956;-70
2022/03/15 09:14:18;;;;;;;;;;;15.50;51.90;;;;;;5092377;28;19935;-69
2022/03/15 09:16:45;;;;;;;;;;;15.50;52.40;;;;;;5074882;28;19924;-70
2022/03/15 09:19:12;;;;;;;;;;;15.60;51.90;;;;;;5074868;28;19924;-70
2022/03/15 09:21:38;;;;;;;;;;;15.50;51.80;;;;;;5074659;28;19950;-69
2022/03/15 09:24:05;;;;;;;;;;;15.60;51.90;;;;;;5074201;28;20380;-69
2022/03/15 09:26:32;;;;;;;;;;;15.50;51.80;;;;;;5074545;28;19930;-70
2022/03/15 09:29:00;;;;;;;;;;;15.50;51.80;;;;;;5074336;28;20376;-69
2022/03/15 09:31:26;;;;;;;;;;;15.60;52.00;;;;;;5092592;28;19924;-69
2022/03/15 09:33:53;;;;;;;;;;;15.60;52.00;;;;;;5092213;28;19931;-70
2022/03/15 09:36:19;;;;;;;;;;;15.60;52.60;;;;;;5074589;28;19931;-70
2022/03/15 09:38:46;;;;;;;;;;;15.60;52.00;;;;;;5074400;28;19931;-68
2022/03/15 09:41:13;;;;;;;;;;;15.60;52.00;;;;;;5092408;28;20388;-69
2022/03/15 09:43:40;;;;;;;;;;;15.60;52.00;;;;;;5092235;28;20295;-69
2022/03/15 09:46:09;;;;;;;;;;;15.60;52.00;;;;;;5091092;28;20292;-69
2022/03/15 09:48:36;;;;;;;;;;;15.60;51.90;;;;;;5092086;28;20390;-69
2022/03/15 09:51:04;;;;;;;;;;;15.70;52.00;;;;;;5095964;28;19934;-69
2022/03/15 09:53:31;;;;;;;;;;;15.70;52.00;;;;;;5095686;28;19951;-69
2022/03/15 09:55:57;;;;;;;;;;;15.70;52.00;;;;;;5095407;28;20316;-69
2022/03/15 09:58:24;;;;;;;;;;;15.70;52.00;;;;;;5096267;28;19924;-70
2022/03/15 10:00:51;;;;;;;;;;;15.70;52.00;;;;;;5095274;28;20337;-69
2022/03/15 10:03:19;;;;;;;;;;;15.70;51.90;;;;;;5095412;28;19924;-68
2022/03/15 10:05:46;;;;;;;;;;;15.70;51.90;;;;;;5096271;28;19924;-69
2022/03/15 10:08:13;;;;;;;;;;;15.70;52.00;;;;;;5077878;28;20501;-69
2022/03/15 10:10:39;;;;;;;;;;;15.70;51.90;;;;;;5096081;28;20007;-69
2022/03/15 10:13:06;;;;;;;;;;;15.70;51.90;;;;;;5072937;28;19924;-69
2022/03/15 10:15:33;;;;;;;;;;;15.70;52.00;;;;;;5075438;28;19928;-69
2022/03/15 10:18:04;;;;;;;;;;;15.70;51.90;;;;;;5091795;28;19932;-69
2022/03/15 10:20:40;;;;;;;;;;;15.70;51.90;;;;;;5095674;28;19928;-69
2022/03/15 10:23:09;;;;;;;;;;;15.70;51.90;;;;;;5075776;28;20006;-69
2022/03/15 10:25:36;;;;;;;;;;;15.80;52.00;;;;;;5076934;28;19931;-69
2022/03/15 10:28:04;;;;;;;;;;;15.70;51.90;;;;;;5094969;28;19930;-69
2022/03/15 10:30:30;;;;;;;;;;;15.70;51.90;;;;;;5077362;28;20284;-69
2022/03/15 10:32:57;;;;;;;;;;;15.70;51.90;;;;;;5095154;28;19930;-69
2022/03/15 10:35:24;;;;;;;;;;;15.70;51.90;;;;;;5095204;28;19924;-69
2022/03/15 10:37:52;;;;;;;;;;;15.70;52.00;;;;;;5075784;28;19928;-70
2022/03/15 10:40:19;;;;;;;;;;;15.70;52.00;;;;;;5074594;28;19947;-67
2022/03/15 10:42:47;;;;;;;;;;;15.70;52.00;;;;;;5094659;28;19925;-67
2022/03/15 10:45:20;;;;;;;;;;;15.70;52.00;;;;;;5076637;28;19939;-67
2022/03/15 10:47:50;;;;;;;;;;;15.80;52.00;;;;;;5076097;28;19930;-67
2022/03/15 10:50:17;;;;;;;;;;;15.70;52.00;;;;;;5074403;28;19934;-67
2022/03/15 10:52:45;;;;;;;;;;;15.70;52.00;;;;;;5094329;28;19928;-67
2022/03/15 10:55:13;;;;;;;;;;;15.80;52.00;;;;;;5095174;28;19931;-67
2022/03/15 10:57:48;;;;;;;;;;;15.70;52.00;;;;;;5094955;28;19928;-67
2022/03/15 11:00:15;;;;;;;;;;;15.70;51.90;;;;;;5076399;28;19964;-69
2022/03/15 11:02:42;;;;;;;;;;;15.80;52.00;;;;;;5095168;28;19924;-67
2022/03/15 11:05:08;;;;;;;;;;;15.80;52.00;;;;;;5076749;28;19924;-69
2022/03/15 11:07:39;;;;;;;;;;;15.80;52.00;;;;;;5094978;28;19924;-67
2022/03/15 11:10:09;;;;;;;;;;;15.70;52.00;;;;;;5092960;28;20018;-68
2022/03/15 11:12:38;;;;;;;;;;;15.70;52.00;;;;;;5075377;28;19946;-67
2022/03/15 11:15:17;;;;;;;;;;;15.70;52.00;;;;;;5074649;28;19978;-67
2022/03/15 11:17:43;;;;;;;;;;;15.70;52.00;;;;;;5075802;28;19928;-68
2022/03/15 11:20:10;;;;;;;;;;;15.70;52.00;;;;;;5085969;28;20376;-67
2022/03/15 11:22:37;;;;;;;;;;;15.70;51.90;;;;;;5056659;28;19935;-67
2022/03/15 11:25:05;;;;;;;;;;;15.70;52.00;;;;;;5088317;28;19935;-67
2022/03/15 11:27:31;;;;;;;;;;;15.70;52.00;;;;;;5094298;28;20393;-69
2022/03/15 11:30:02;;;;;;;;;;;15.60;52.00;;;;;;5076090;28;19924;-70
2022/03/15 11:32:30;;;;;;;;;;;15.70;52.10;;;;;;5068202;28;20032;-70
2022/03/15 11:34:57;;;;;;;;;;;15.70;52.10;;;;;;5072690;28;19978;-70
2022/03/15 11:37:24;;;;;;;;;;;15.60;52.10;;;;;;5072819;28;19924;-66
2022/03/15 11:39:50;;;;;;;;;;;15.60;52.10;;;;;;5074092;28;19963;-70
2022/03/15 11:42:18;;;;;;;;;;;15.60;52.10;;;;;;5074045;28;19928;-70
2022/03/15 11:44:51;;;;;;;;;;;15.60;52.10;;;;;;5072738;28;19925;-70
2022/03/15 11:47:22;;;;;;;;;;;15.60;52.20;;;;;;5072691;28;19924;-69
2022/03/15 11:49:51;;;;;;;;;;;15.50;52.20;;;;;;5074460;28;19924;-70
2022/03/15 11:52:21;;;;;;;;;;;15.60;52.30;;;;;;5093856;28;19928;-69
2022/03/15 11:54:48;;;;;;;;;;;15.50;52.20;;;;;;5094005;28;19930;-70
2022/03/15 11:57:21;;;;;;;;;;;15.50;52.20;;;;;;5076254;28;19924;-70
2022/03/15 11:59:48;;;;;;;;;;;15.60;52.30;;;;;;5094253;28;19946;-69
2022/03/15 12:02:15;;;;;;;;;;;15.60;52.30;;;;;;5075703;28;19997;-70
2022/03/15 12:04:44;;;;;;;;;;;15.60;52.30;;;;;;5093505;28;19963;-70
2022/03/15 12:07:11;;;;;;;;;;;15.50;52.30;;;;;;5093992;28;19933;-70
2022/03/15 12:09:44;;;;;;;;;;;15.50;52.30;;;;;;5093700;28;20582;-69
2022/03/15 12:12:11;;;;;;;;;;;15.50;52.30;;;;;;5093588;28;20292;-69
2022/03/15 12:14:40;;;;;;;;;;;15.50;52.30;;;;;;5093677;28;19924;-70
2022/03/15 12:17:07;;;;;;;;;;;15.60;52.40;;;;;;5075784;28;20392;-70
2022/03/15 12:19:41;;;;;;;;;;;15.50;52.40;;;;;;5093332;28;19935;-70
2022/03/15 12:22:10;;;;;;;;;;;15.50;52.40;;;;;;5075358;28;19924;-70
2022/03/15 12:24:37;;;;;;;;;;;15.50;52.30;;;;;;5075253;28;20599;-70
2022/03/15 12:27:04;;;;;;;;;;;15.50;52.30;;;;;;5093117;28;20494;-70
2022/03/15 12:29:31;;;;;;;;;;;15.50;52.30;;;;;;5075259;28;20457;-70
2022/03/15 12:31:58;;;;;;;;;;;15.50;52.40;;;;;;5074972;28;19924;-71
2022/03/15 12:34:25;;;;;;;;;;;15.50;52.40;;;;;;5093329;28;19924;-71
2022/03/15 12:36:52;;;;;;;;;;;15.50;52.40;;;;;;5075195;28;19924;-71
2022/03/15 12:39:20;;;;;;;;;;;15.50;52.40;;;;;;5075438;28;19946;-71
2022/03/15 12:41:47;;;;;;;;;;;15.50;52.40;;;;;;5075075;28;19928;-71
2022/03/15 12:44:14;;;;;;;;;;;15.50;52.50;;;;;;5071698;28;19928;-70
2022/03/15 12:46:41;;;;;;;;;;;15.50;52.50;;;;;;5074577;28;19927;-71
2022/03/15 12:49:08;;;;;;;;;;;15.50;52.50;;;;;;5092926;28;19924;-71
2022/03/15 12:51:37;;;;;;;;;;;15.40;52.50;;;;;;5092478;28;19971;-71
2022/03/15 12:54:04;;;;;;;;;;;15.50;52.60;;;;;;5055995;28;19977;-69
2022/03/15 12:56:32;;;;;;;;;;;15.50;52.60;;;;;;5072499;28;19931;-71
2022/03/15 12:58:59;;;;;;;;;;;15.50;52.60;;;;;;5077192;28;19924;-71
2022/03/15 13:01:26;;;;;;;;;;;15.50;52.60;;;;;;5092465;28;19928;-71
2022/03/15 13:03:52;;;;;;;;;;;15.50;52.60;;;;;;5089239;28;19947;-71
2022/03/15 13:06:19;;;;;;;;;;;15.50;52.60;;;;;;5073464;28;19924;-71
2022/03/15 13:08:52;;;;;;;;;;;15.50;52.60;;;;;;5074321;28;19924;-72
2022/03/15 13:11:18;;;;;;;;;;;15.50;52.60;;;;;;5072393;28;19930;-71
2022/03/15 13:13:46;;;;;;;;;;;15.50;52.60;;;;;;5084944;28;19924;-71
2022/03/15 13:16:13;;;;;;;;;;;15.50;52.60;;;;;;5089577;28;20380;-71
2022/03/15 13:18:42;;;;;;;;;;;15.40;52.50;;;;;;5091834;28;19924;-71
2022/03/15 13:21:10;;;;;;;;;;;15.40;52.60;;;;;;5073790;28;19924;-72
2022/03/15 13:23:37;;;;;;;;;;;15.50;52.60;;;;;;5073020;28;19971;-71
2022/03/15 13:26:07;;;;;;;;;;;15.50;52.60;;;;;;5092248;28;19942;-72
2022/03/15 13:28:34;;;;;;;;;;;15.50;52.60;;;;;;5071768;28;19958;-72
2022/03/15 13:31:05;;;;;;;;;;;15.50;52.60;;;;;;5092207;28;19924;-71
2022/03/15 13:33:32;;;;;;;;;;;15.50;52.60;;;;;;5091537;28;19924;-71
2022/03/15 13:36:00;;;;;;;;;;;15.50;52.60;;;;;;5074652;28;19935;-71
2022/03/15 13:38:26;;;;;;;;;;;15.50;52.60;;;;;;5091974;28;19924;-71
2022/03/15 13:40:53;;;;;;;;;;;15.60;52.60;;;;;;5074179;28;19924;-70
2022/03/15 13:43:22;;;;;;;;;;;15.60;52.70;;;;;;5074276;28;19928;-68
2022/03/15 13:45:49;;;;;;;;;;;15.60;52.60;;;;;;5092496;28;19924;-68
2022/03/15 13:48:26;;;;;;;;;;;15.60;52.60;;;;;;5073763;28;20019;-68
2022/03/15 13:50:58;;;;;;;;;;;15.60;52.60;;;;;;5077289;28;19931;-68
2022/03/15 13:53:25;;;;;;;;;;;15.60;52.60;;;;;;5074251;28;19928;-68
2022/03/15 13:55:53;;;;;;;;;;;15.60;52.60;;;;;;5092037;28;19924;-69
2022/03/15 13:58:28;;;;;;;;;;;15.70;52.70;;;;;;5089647;28;19924;-69
2022/03/15 14:01:03;;;;;;;;;;;15.70;52.60;;;;;;5071143;28;19928;-66
2022/03/15 14:03:33;;;;;;;;;;;15.70;52.70;;;;;;5073880;28;19956;-66
2022/03/15 14:06:01;;;;;;;;;;;15.70;52.70;;;;;;5091386;28;19931;-67
2022/03/15 14:08:27;;;;;;;;;;;15.70;52.70;;;;;;5073503;28;20306;-68
2022/03/15 14:10:54;;;;;;;;;;;15.70;52.70;;;;;;5090964;28;20295;-67
2022/03/15 14:13:21;;;;;;;;;;;15.70;52.70;;;;;;5091767;28;20397;-67
2022/03/15 14:15:48;;;;;;;;;;;15.70;52.60;;;;;;5092325;28;20326;-66